createdAt,value
2022-09-13T00:01:48.720Z,101126.63
2022-09-13T00:04:15.467Z,101122.78
2022-09-13T00:06:42.139Z,101127.19
2022-09-13T00:09:08.902Z,101117.28
2022-09-13T00:11:35.615Z,101104.84
2022-09-13T00:14:04.264Z,101096.78
2022-09-13T00:16:31.402Z,101094.09
2022-09-13T00:18:59.890Z,101091.97
2022-09-13T00:21:27.901Z,101097.91
2022-09-13T00:23:55.624Z,101083.03
2022-09-13T00:26:24.031Z,101088.56
2022-09-13T00:28:51.983Z,101083.88
2022-09-13T00:31:21.480Z,101086.97
2022-09-13T00:33:48.252Z,101089.38
2022-09-13T00:36:15.547Z,101082.75
2022-09-13T00:38:43.466Z,101079.75
2022-09-13T00:41:14.131Z,101083.56
2022-09-13T00:43:48.019Z,101080.75
2022-09-13T00:46:23.704Z,101072.53
2022-09-13T00:48:53.626Z,101068.00
2022-09-13T00:51:20.560Z,101069.69
2022-09-13T00:53:52.444Z,101051.44
2022-09-13T00:56:23.150Z,101069.69
2022-09-13T00:58:54.883Z,101061.22
2022-09-13T01:01:29.848Z,101068.41
2022-09-13T01:03:56.850Z,101074.50
2022-09-13T01:06:29.452Z,101070.78
2022-09-13T01:09:03.939Z,101067.97
2022-09-13T01:11:39.113Z,101067.97
2022-09-13T01:14:08.199Z,101067.97
2022-09-13T01:16:36.690Z,101042.94
2022-09-13T01:19:04.027Z,101062.88
2022-09-13T01:22:05.347Z,101059.22
2022-09-13T01:24:59.815Z,101056.53
2022-09-13T01:27:45.891Z,101050.28
2022-09-13T01:30:18.641Z,101050.41
2022-09-13T01:33:16.545Z,101047.00
2022-09-13T01:36:33.015Z,101043.63
2022-09-13T01:39:04.708Z,101054.38
2022-09-13T01:41:54.635Z,101050.69
2022-09-13T01:44:37.825Z,101042.47
2022-09-13T01:47:13.083Z,101039.06
2022-09-13T01:49:46.977Z,101039.25
2022-09-13T01:52:21.718Z,101037.69
2022-09-13T01:54:56.405Z,101039.38
2022-09-13T01:57:31.824Z,101036.00
2022-09-13T02:00:04.318Z,101042.22
2022-09-13T02:02:45.432Z,101044.06
2022-09-13T02:05:17.650Z,101035.13
2022-09-13T02:07:53.930Z,101037.53
2022-09-13T02:10:25.193Z,101028.34
2022-09-13T02:12:54.192Z,101041.22
2022-09-13T02:15:25.371Z,101028.06
2022-09-13T02:17:59.186Z,101017.03
2022-09-13T02:20:29.324Z,101023.16
2022-09-13T02:22:59.524Z,101032.91
2022-09-13T02:25:28.675Z,101040.97
2022-09-13T02:27:59.950Z,101029.97
2022-09-13T02:30:28.653Z,101032.94
2022-09-13T02:33:00.538Z,101041.00
2022-09-13T02:35:33.332Z,101042.88
2022-09-13T02:38:04.542Z,101047.22
2022-09-13T02:40:42.199Z,101036.78
2022-09-13T02:43:12.487Z,101041.44
2022-09-13T02:45:46.020Z,101040.00
2022-09-13T02:48:21.363Z,101036.31
2022-09-13T02:50:59.993Z,101040.28
2022-09-13T02:53:31.910Z,101032.13
2022-09-13T02:56:05.909Z,101032.84
2022-09-13T02:58:37.661Z,101022.38
2022-09-13T03:01:04.560Z,101031.00
2022-09-13T03:03:32.925Z,101027.28
2022-09-13T03:06:00.427Z,101035.22
2022-09-13T03:08:28.293Z,101036.78
2022-09-13T03:11:04.304Z,101035.81
2022-09-13T03:13:56.524Z,101040.75
2022-09-13T03:16:37.111Z,101039.34
2022-09-13T03:19:21.095Z,101037.34
2022-09-13T03:22:03.453Z,101027.84
2022-09-13T03:24:40.147Z,101039.16
2022-09-13T03:27:15.140Z,101039.88
2022-09-13T03:29:52.376Z,101045.66
2022-09-13T03:32:28.399Z,101048.75
2022-09-13T03:35:05.950Z,101050.16
2022-09-13T03:37:36.892Z,101051.69
2022-09-13T03:40:09.596Z,101047.69
2022-09-13T03:42:42.999Z,101045.00
2022-09-13T03:45:11.676Z,101048.72
2022-09-13T03:47:42.502Z,101041.94
2022-09-13T03:50:14.894Z,101056.22
2022-09-13T03:52:46.351Z,101060.88
2022-09-13T03:55:13.531Z,101055.78
2022-09-13T03:57:40.331Z,101056.09
2022-09-13T04:00:08.158Z,101057.53
2022-09-13T04:02:38.439Z,101054.97
2022-09-13T04:05:06.072Z,101057.09
2022-09-13T04:07:34.207Z,101055.28
2022-09-13T04:10:01.341Z,101066.88
2022-09-13T04:12:31.903Z,101066.03
2022-09-13T04:14:58.668Z,101069.47
2022-09-13T04:17:25.305Z,101067.22
2022-09-13T04:19:52.061Z,101070.31
2022-09-13T04:22:18.867Z,101069.47
2022-09-13T04:24:46.993Z,101074.31
2022-09-13T04:27:13.730Z,101077.97
2022-09-13T04:29:40.481Z,101083.47
2022-09-13T04:32:07.418Z,101073.00
2022-09-13T04:34:34.385Z,101078.53
2022-09-13T04:37:01.117Z,101077.69
2022-09-13T04:39:28.251Z,101078.94
2022-09-13T04:41:56.848Z,101061.84
2022-09-13T04:44:24.537Z,101078.81
2022-09-13T04:46:51.978Z,101067.34
2022-09-13T04:49:20.255Z,101080.75
2022-09-13T04:51:47.171Z,101085.16
2022-09-13T04:54:16.101Z,101095.03
2022-09-13T04:56:43.102Z,101088.69
2022-09-13T04:59:12.208Z,101100.28
2022-09-13T05:01:39.756Z,101091.78
2022-09-13T05:04:07.533Z,101098.72
2022-09-13T05:06:34.783Z,101095.47
2022-09-13T05:09:02.375Z,101101.69
2022-09-13T05:11:29.995Z,101098.00
2022-09-13T05:13:58.122Z,101105.09
2022-09-13T05:16:28.878Z,101100.56
2022-09-13T05:18:56.061Z,101102.53
2022-09-13T05:21:24.180Z,101100.84
2022-09-13T05:23:52.065Z,101100.13
2022-09-13T05:26:23.567Z,101104.25
2022-09-13T05:28:50.685Z,101106.66
2022-09-13T05:31:19.778Z,101103.38
2022-09-13T05:33:52.979Z,101104.81
2022-09-13T05:36:19.965Z,101105.50
2022-09-13T05:38:46.696Z,101105.38
2022-09-13T05:41:13.462Z,101104.38
2022-09-13T05:43:40.283Z,101102.81
2022-09-13T05:46:11.287Z,101114.84
2022-09-13T05:48:39.027Z,101118.53
2022-09-13T05:51:10.210Z,101122.66
2022-09-13T05:53:39.701Z,101134.13
2022-09-13T05:56:07.277Z,101134.25
2022-09-13T05:58:35.461Z,101132.84
2022-09-13T06:01:02.193Z,101130.84
2022-09-13T06:03:28.926Z,101143.44
2022-09-13T06:05:56.908Z,101141.31
2022-09-13T06:08:25.209Z,101136.81
2022-09-13T06:10:57.126Z,101142.47
2022-09-13T06:13:24.506Z,101147.41
2022-09-13T06:15:52.004Z,101141.03
2022-09-13T06:18:19.359Z,101148.41
2022-09-13T06:20:46.647Z,101147.81
2022-09-13T06:23:13.823Z,101154.16
2022-09-13T06:25:42.579Z,101145.66
2022-09-13T06:28:10.002Z,101152.75
2022-09-13T06:30:37.111Z,101142.25
2022-09-13T06:33:04.452Z,101143.94
2022-09-13T06:35:31.424Z,101145.78
2022-09-13T06:37:58.773Z,101141.81
2022-09-13T06:40:26.311Z,101147.78
2022-09-13T06:42:54.563Z,101138.16
2022-09-13T06:45:22.337Z,101144.38
2022-09-13T06:47:49.107Z,101145.81
2022-09-13T06:50:16.015Z,101142.97
2022-09-13T06:52:42.777Z,101134.94
2022-09-13T06:55:12.665Z,101132.53
2022-09-13T06:57:39.669Z,101135.34
2022-09-13T07:00:09.990Z,101135.34
2022-09-13T07:02:36.664Z,101139.91
2022-09-13T07:05:05.968Z,101143.28
2022-09-13T07:07:36.592Z,101140.00
2022-09-13T07:10:03.780Z,101133.91
2022-09-13T07:12:30.464Z,101142.50
2022-09-13T07:14:57.146Z,101141.31
2022-09-13T07:17:28.445Z,101140.75
2022-09-13T07:19:57.604Z,101140.63
2022-09-13T07:22:27.229Z,101145.66
2022-09-13T07:24:54.272Z,101141.97
2022-09-13T07:27:21.097Z,101137.84
2022-09-13T07:29:47.851Z,101146.69
2022-09-13T07:32:14.980Z,101138.72
2022-09-13T07:34:43.138Z,101143.66
2022-09-13T07:37:09.878Z,101144.25
2022-09-13T07:39:36.659Z,101145.97
2022-09-13T07:42:03.546Z,101145.47
2022-09-13T07:44:30.534Z,101152.06
2022-09-13T07:46:57.263Z,101154.41
2022-09-13T07:49:24.197Z,101151.78
2022-09-13T07:51:53.081Z,101166.94
2022-09-13T07:54:20.723Z,101169.50
2022-09-13T07:56:50.579Z,101168.69
2022-09-13T07:59:17.723Z,101167.28
2022-09-13T08:01:45.776Z,101171.63
2022-09-13T08:04:15.019Z,101174.47
2022-09-13T08:06:43.655Z,101177.69
2022-09-13T08:09:13.042Z,101174.69
2022-09-13T08:11:41.199Z,101174.81
2022-09-13T08:14:10.993Z,101182.91
2022-09-13T08:16:39.419Z,101180.63
2022-09-13T08:19:07.608Z,101186.41
2022-09-13T08:21:36.596Z,101187.25
2022-09-13T08:24:04.358Z,101191.78
2022-09-13T08:26:35.599Z,101188.63
2022-09-13T08:29:05.484Z,101192.16
2022-09-13T08:31:33.242Z,101180.38
2022-09-13T08:34:00.488Z,101189.72
2022-09-13T08:36:29.225Z,101182.31
2022-09-13T08:38:59.204Z,101192.44
2022-09-13T08:41:52.674Z,101194.94
2022-09-13T08:44:26.859Z,101199.13
2022-09-13T08:46:59.033Z,101199.41
2022-09-13T08:49:30.476Z,101207.13
2022-09-13T08:52:01.296Z,101196.94
2022-09-13T08:54:28.550Z,101192.47
2022-09-13T08:57:04.032Z,101201.09
2022-09-13T08:59:47.654Z,101204.03
2022-09-13T09:02:24.818Z,101208.78
2022-09-13T09:04:58.808Z,101212.13
2022-09-13T09:07:28.188Z,101203.94
2022-09-13T09:09:56.381Z,101214.88
2022-09-13T09:12:37.056Z,101202.81
2022-09-13T09:15:13.393Z,101205.19
2022-09-13T09:17:49.796Z,101219.50
2022-09-13T09:20:26.148Z,101215.94
2022-09-13T09:22:55.172Z,101221.25
2022-09-13T09:25:24.732Z,101214.88
2022-09-13T09:27:53.999Z,101207.09
2022-09-13T09:30:21.298Z,101214.13
2022-09-13T09:32:58.258Z,101214.16
2022-09-13T09:35:37.088Z,101213.16
2022-09-13T09:38:19.728Z,101202.34
2022-09-13T09:40:46.703Z,101207.06
2022-09-13T09:43:20.223Z,101196.56
2022-09-13T09:45:47.594Z,101207.78
2022-09-13T09:48:22.659Z,101213.25
2022-09-13T09:50:53.127Z,101213.19
2022-09-13T09:53:27.326Z,101199.09
2022-09-13T09:56:00.573Z,101197.59
2022-09-13T09:58:39.909Z,101202.19
2022-09-13T10:01:17.251Z,101209.97
2022-09-13T10:03:51.615Z,101208.88
2022-09-13T10:06:21.820Z,101199.94
2022-09-13T10:08:57.038Z,101210.13
2022-09-13T10:11:27.207Z,101213.31
2022-09-13T10:14:01.997Z,101208.97
2022-09-13T10:16:30.563Z,101206.69
2022-09-13T10:19:23.647Z,101200.34
2022-09-13T10:22:02.284Z,101216.53
2022-09-13T10:24:30.527Z,101205.78
2022-09-13T10:26:58.230Z,101213.31
2022-09-13T10:29:28.346Z,101211.09
2022-09-13T10:31:57.873Z,101202.06
2022-09-13T10:34:28.897Z,101197.19
2022-09-13T10:37:00.808Z,101205.56
2022-09-13T10:39:30.907Z,101202.47
2022-09-13T10:42:00.927Z,101197.63
2022-09-13T10:44:40.212Z,101195.84
2022-09-13T10:47:11.835Z,101191.13
2022-09-13T10:49:42.616Z,101195.63
2022-09-13T10:52:33.650Z,101214.84
2022-09-13T10:55:42.564Z,101195.28
2022-09-13T10:58:19.453Z,101195.34
2022-09-13T11:01:19.557Z,101196.38
2022-09-13T11:04:11.696Z,101205.81
2022-09-13T11:06:42.973Z,101200.72
2022-09-13T11:09:16.045Z,101203.66
2022-09-13T11:11:52.141Z,101202.19
2022-09-13T11:14:45.547Z,101207.13
2022-09-13T11:17:25.267Z,101199.41
2022-09-13T11:20:27.434Z,101208.78
2022-09-13T11:23:16.450Z,101206.31
2022-09-13T11:26:02.278Z,101206.41
2022-09-13T11:28:40.029Z,101201.00
2022-09-13T11:31:21.659Z,101203.72
2022-09-13T11:34:03.488Z,101212.03
2022-09-13T11:36:49.947Z,101214.06
2022-09-13T11:39:28.736Z,101205.53
2022-09-13T11:42:06.825Z,101204.16
2022-09-13T11:45:05.627Z,101211.66
2022-09-13T11:47:46.710Z,101204.69
2022-09-13T11:50:26.259Z,101196.28
2022-09-13T11:53:06.289Z,101197.22
2022-09-13T11:55:38.229Z,101199.50
2022-09-13T11:58:12.046Z,101189.47
2022-09-13T12:00:43.982Z,101182.13
2022-09-13T12:03:17.850Z,101188.66
2022-09-13T12:05:50.466Z,101193.34
2022-09-13T12:08:21.652Z,101183.94
2022-09-13T12:10:52.776Z,101182.53
2022-09-13T12:13:23.878Z,101183.25
2022-09-13T12:15:54.011Z,101177.13
2022-09-13T12:18:26.273Z,101175.63
2022-09-13T12:20:58.554Z,101176.50
2022-09-13T12:23:31.354Z,101174.59
2022-09-13T12:26:03.292Z,101169.66
2022-09-13T12:28:35.567Z,101168.75
2022-09-13T12:31:07.123Z,101166.78
2022-09-13T12:33:34.193Z,101171.72
2022-09-13T12:36:32.492Z,101158.94
2022-09-13T12:39:19.226Z,101162.97
2022-09-13T12:42:03.466Z,101166.59
2022-09-13T12:44:51.754Z,101168.88
2022-09-13T12:48:11.456Z,101161.09
2022-09-13T12:50:52.146Z,101169.22
2022-09-13T12:53:53.349Z,101166.50
2022-09-13T12:56:31.867Z,101166.94
2022-09-13T12:59:24.153Z,101172.38
2022-09-13T13:01:52.459Z,101162.97
2022-09-13T13:04:22.437Z,101164.06
2022-09-13T13:06:52.543Z,101160.91
2022-09-13T13:09:31.211Z,101169.13
2022-09-13T13:11:59.168Z,101169.59
2022-09-13T13:14:44.391Z,101168.72
2022-09-13T13:17:37.137Z,101170.25
2022-09-13T13:20:37.110Z,101167.34
2022-09-13T13:23:14.675Z,101167.53
2022-09-13T13:25:56.331Z,101159.00
2022-09-13T13:28:52.214Z,101164.88
2022-09-13T13:31:40.744Z,101179.66
2022-09-13T13:34:37.238Z,101179.03
2022-09-13T13:37:06.230Z,101181.31
2022-09-13T13:39:39.306Z,101176.94
2022-09-13T13:42:25.505Z,101176.16
2022-09-13T13:45:15.958Z,101172.78
2022-09-13T13:47:56.189Z,101182.91
2022-09-13T13:50:23.250Z,101188.97
2022-09-13T13:53:03.255Z,101181.34
2022-09-13T13:55:40.111Z,101187.34
2022-09-13T13:58:25.346Z,101183.75
2022-09-13T14:00:54.433Z,101177.63
2022-09-13T14:03:31.167Z,101184.19
2022-09-13T14:06:06.126Z,101186.47
2022-09-13T14:08:45.322Z,101185.03
2022-09-13T14:11:26.449Z,101181.88
2022-09-13T14:14:11.670Z,101188.78
2022-09-13T14:16:54.118Z,101180.88
2022-09-13T14:19:27.079Z,101185.16
2022-09-13T14:22:15.380Z,101182.88
2022-09-13T14:24:43.325Z,101184.84
2022-09-13T14:27:16.709Z,101190.81
2022-09-13T14:29:47.897Z,101179.88
2022-09-13T14:32:18.743Z,101184.28
2022-09-13T14:34:55.852Z,101186.31
2022-09-13T14:37:27.395Z,101184.25
2022-09-13T14:40:00.915Z,101193.13
2022-09-13T14:42:38.696Z,101189.41
2022-09-13T14:45:13.120Z,101184.38
2022-09-13T14:47:51.280Z,101192.34
2022-09-13T14:50:22.656Z,101184.13
2022-09-13T14:52:54.873Z,101192.84
2022-09-13T14:55:27.539Z,101191.16
2022-09-13T14:58:01.942Z,101189.16
2022-09-13T15:00:32.694Z,101190.50
2022-09-13T15:03:03.204Z,101187.53
2022-09-13T15:05:33.147Z,101186.22
2022-09-13T15:08:00.366Z,101191.63
2022-09-13T15:10:29.143Z,101187.47
2022-09-13T15:13:08.185Z,101187.53
2022-09-13T15:15:38.611Z,101187.69
2022-09-13T15:18:25.351Z,101188.06
2022-09-13T15:20:53.084Z,101186.59
2022-09-13T15:23:24.968Z,101184.84
2022-09-13T15:25:54.335Z,101187.84
2022-09-13T15:28:24.986Z,101192.13
2022-09-13T15:30:54.722Z,101184.69
2022-09-13T15:33:27.894Z,101186.06
2022-09-13T15:36:28.243Z,101183.13
2022-09-13T15:39:01.227Z,101178.31
2022-09-13T15:41:33.124Z,101184.22
2022-09-13T15:44:01.525Z,101187.72
2022-09-13T15:46:30.490Z,101190.00
2022-09-13T15:48:59.825Z,101185.16
2022-09-13T15:51:30.213Z,101198.22
2022-09-13T15:53:57.045Z,101205.34
2022-09-13T15:56:35.645Z,101201.47
2022-09-13T15:59:02.448Z,101191.53
2022-09-13T16:01:30.729Z,101187.72
2022-09-13T16:03:57.847Z,101184.28
2022-09-13T16:06:24.907Z,101187.06
2022-09-13T16:08:51.782Z,101193.09
2022-09-13T16:11:18.662Z,101191.25
2022-09-13T16:13:45.434Z,101183.59
2022-09-13T16:16:13.953Z,101179.16
2022-09-13T16:18:42.235Z,101171.44
2022-09-13T16:21:09.173Z,101178.97
2022-09-13T16:23:36.298Z,101171.31
2022-09-13T16:26:04.817Z,101176.16
2022-09-13T16:28:31.629Z,101167.84
2022-09-13T16:30:58.524Z,101153.00
2022-09-13T16:33:25.483Z,101144.88
2022-09-13T16:35:53.737Z,101147.41
2022-09-13T16:38:20.575Z,101149.88
2022-09-13T16:40:47.975Z,101144.06
2022-09-13T16:43:15.141Z,101154.75
2022-09-13T16:45:42.518Z,101156.06
2022-09-13T16:48:09.517Z,101155.06
2022-09-13T16:50:39.755Z,101147.59
2022-09-13T16:53:08.437Z,101148.72
2022-09-13T16:55:36.128Z,101159.47
2022-09-13T16:58:02.984Z,101164.88
2022-09-13T17:00:30.430Z,101156.16
2022-09-13T17:02:57.746Z,101162.69
2022-09-13T17:05:25.833Z,101151.50
2022-09-13T17:07:53.527Z,101153.38
2022-09-13T17:10:22.113Z,101163.00
2022-09-13T17:12:49.346Z,101157.16
2022-09-13T17:15:16.698Z,101164.00
2022-09-13T17:17:43.594Z,101154.41
2022-09-13T17:20:13.351Z,101161.06
2022-09-13T17:22:41.537Z,101151.72
2022-09-13T17:25:09.478Z,101151.44
2022-09-13T17:27:37.990Z,101166.91
2022-09-13T17:30:06.797Z,101161.53
2022-09-13T17:32:33.592Z,101162.25
2022-09-13T17:35:00.445Z,101148.41
2022-09-13T17:37:27.289Z,101143.72
2022-09-13T17:39:54.222Z,101151.22
2022-09-13T17:42:23.353Z,101154.06
2022-09-13T17:44:51.883Z,101153.63
2022-09-13T17:47:18.700Z,101149.75
2022-09-13T17:49:47.119Z,101155.69
2022-09-13T17:52:14.191Z,101159.22
2022-09-13T17:54:40.952Z,101162.19
2022-09-13T17:57:08.322Z,101161.31
2022-09-13T17:59:35.064Z,101143.75
2022-09-13T18:02:03.592Z,101142.75
2022-09-13T18:04:30.778Z,101158.75
2022-09-13T18:06:57.726Z,101149.69
2022-09-13T18:09:25.036Z,101131.16
2022-09-13T18:11:51.920Z,101133.25
2022-09-13T18:14:19.674Z,101129.84
2022-09-13T18:16:47.276Z,101167.16
2022-09-13T18:19:15.715Z,101161.75
2022-09-13T18:21:42.629Z,101156.63
2022-09-13T18:24:09.887Z,101159.00
2022-09-13T18:26:37.131Z,101145.03
2022-09-13T18:29:06.404Z,101135.31
2022-09-13T18:31:35.078Z,101148.00
2022-09-13T18:34:03.890Z,101149.38
2022-09-13T18:36:33.568Z,101153.47
2022-09-13T18:39:03.083Z,101144.34
2022-09-13T18:41:32.114Z,101143.38
2022-09-13T18:44:00.378Z,101143.38
2022-09-13T18:46:30.391Z,101123.72
2022-09-13T18:49:00.701Z,101135.13
2022-09-13T18:51:32.678Z,101140.38
2022-09-13T18:54:05.108Z,101134.31
2022-09-13T18:56:33.272Z,101144.94
2022-09-13T18:59:02.393Z,101150.78
2022-09-13T19:01:32.883Z,101155.16
2022-09-13T19:04:02.151Z,101158.59
2022-09-13T19:06:31.754Z,101150.25
2022-09-13T19:09:02.275Z,101145.56
2022-09-13T19:11:49.539Z,101147.31
2022-09-13T19:14:24.041Z,101146.88
2022-09-13T19:16:57.075Z,101153.22
2022-09-13T19:19:24.245Z,101149.81
2022-09-13T19:21:52.032Z,101134.28
2022-09-13T19:24:21.826Z,101151.56
2022-09-13T19:26:52.196Z,101143.19
2022-09-13T19:29:21.162Z,101138.47
2022-09-13T19:31:49.726Z,101126.94
2022-09-13T19:34:17.759Z,101136.16
2022-09-13T19:36:45.704Z,101133.38
2022-09-13T19:39:13.263Z,101131.38
2022-09-13T19:41:43.639Z,101138.78
2022-09-13T19:44:12.651Z,101143.28
2022-09-13T19:46:41.997Z,101130.25
2022-09-13T19:49:13.449Z,101131.88
2022-09-13T19:51:46.477Z,101131.22
2022-09-13T19:54:18.951Z,101133.28
2022-09-13T19:56:47.442Z,101136.22
2022-09-13T19:59:19.778Z,101131.88
2022-09-13T20:01:47.932Z,101145.13
2022-09-13T20:04:17.209Z,101132.97
2022-09-13T20:06:46.072Z,101137.94
2022-09-13T20:09:14.459Z,101144.66
2022-09-13T20:11:45.182Z,101142.09
2022-09-13T20:14:15.167Z,101138.31
2022-09-13T20:16:43.099Z,101135.38
2022-09-13T20:19:38.739Z,101135.88
2022-09-13T20:22:01.409Z,101146.31
2022-09-13T20:24:28.580Z,101144.13
2022-09-13T20:26:55.852Z,101137.81
2022-09-13T20:29:24.715Z,101118.00
2022-09-13T20:31:51.626Z,101134.16
2022-09-13T20:34:18.539Z,101133.69
2022-09-13T20:36:47.157Z,101133.81
2022-09-13T20:39:15.290Z,101114.72
2022-09-13T20:41:43.504Z,101129.44
2022-09-13T20:44:10.902Z,101125.31
2022-09-13T20:46:40.576Z,101123.47
2022-09-13T20:49:09.196Z,101121.16
2022-09-13T20:51:37.340Z,101117.16
2022-09-13T20:54:05.688Z,101122.03
2022-09-13T20:56:34.613Z,101117.41
2022-09-13T20:59:02.167Z,101112.56
2022-09-13T21:01:31.544Z,101114.50
2022-09-13T21:03:59.701Z,101115.94
2022-09-13T21:06:29.189Z,101111.78
2022-09-13T21:08:59.913Z,101122.72
2022-09-13T21:11:33.231Z,101108.03
2022-09-13T21:14:02.359Z,101112.03
2022-09-13T21:16:31.304Z,101115.88
2022-09-13T21:19:00.954Z,101117.84
2022-09-13T21:21:30.318Z,101109.19
2022-09-13T21:23:57.639Z,101123.91
2022-09-13T21:26:29.045Z,101110.63
2022-09-13T21:28:56.977Z,101119.28
2022-09-13T21:31:26.127Z,101116.22
2022-09-13T21:33:54.367Z,101110.25
2022-09-13T21:36:22.796Z,101109.44
2022-09-13T21:38:50.006Z,101114.78
2022-09-13T21:41:18.431Z,101106.53
2022-09-13T21:43:45.484Z,101099.94
2022-09-13T21:46:16.963Z,101098.69
2022-09-13T21:48:46.289Z,101107.72
2022-09-13T21:51:16.229Z,101102.22
2022-09-13T21:53:45.397Z,101101.56
2022-09-13T21:56:14.692Z,101100.34
2022-09-13T21:58:41.655Z,101098.88
2022-09-13T22:01:11.973Z,101098.75
2022-09-13T22:03:41.274Z,101095.31
2022-09-13T22:06:09.670Z,101095.47
2022-09-13T22:08:39.347Z,101097.16
2022-09-13T22:11:09.420Z,101097.03
2022-09-13T22:13:38.037Z,101086.22
2022-09-13T22:16:06.899Z,101091.44
2022-09-13T22:18:34.736Z,101083.16
2022-09-13T22:21:06.301Z,101088.66
2022-09-13T22:23:33.562Z,101074.63
2022-09-13T22:26:00.501Z,101075.78
2022-09-13T22:28:28.653Z,101074.44
2022-09-13T22:30:55.465Z,101082.06
2022-09-13T22:33:22.473Z,101079.78
2022-09-13T22:35:58.549Z,101077.69
2022-09-13T22:38:25.996Z,101075.34
2022-09-13T22:40:57.403Z,101068.53
2022-09-13T22:43:25.321Z,101073.91
2022-09-13T22:45:54.477Z,101073.53
2022-09-13T22:48:22.837Z,101077.16
2022-09-13T22:50:51.152Z,101089.78
2022-09-13T22:53:18.578Z,101088.94
2022-09-13T22:55:45.461Z,101093.66
2022-09-13T22:58:12.925Z,101085.16
2022-09-13T23:00:40.320Z,101097.41
2022-09-13T23:03:08.795Z,101090.50
2022-09-13T23:05:35.801Z,101090.09
2022-09-13T23:08:03.734Z,101094.66
2022-09-13T23:10:30.755Z,101093.03
2022-09-13T23:13:00.717Z,101091.59
2022-09-13T23:15:27.550Z,101088.63
2022-09-13T23:17:54.733Z,101089.94
2022-09-13T23:20:22.898Z,101084.72
2022-09-13T23:22:49.681Z,101075.41
2022-09-13T23:25:16.829Z,101075.19
2022-09-13T23:27:43.613Z,101068.38
2022-09-13T23:30:11.431Z,101059.84
2022-09-13T23:32:38.357Z,101052.97
2022-09-13T23:35:05.862Z,101048.44
2022-09-13T23:37:34.060Z,101050.25
2022-09-13T23:40:01.634Z,101051.00
2022-09-13T23:42:29.116Z,101045.78
2022-09-13T23:44:55.883Z,101048.53
2022-09-13T23:47:22.712Z,101052.59
2022-09-13T23:49:49.608Z,101056.84
2022-09-13T23:52:16.320Z,101050.31
2022-09-13T23:54:45.716Z,101055.03
2022-09-13T23:57:12.466Z,101040.00
2022-09-13T23:59:40.209Z,101051.94
